sensor_id;sensor_type;location;lat;lon;timestamp;pressure;altitude;pressure_sealevel;temperature;humidity
59831;BME280;45711;50.108;13.712;2022-12-17T00:02:37;97961.00;;;-2.98;83.76
59831;BME280;45711;50.108;13.712;2022-12-17T00:05:22;97970.16;;;-2.87;83.53
59831;BME280;45711;50.108;13.712;2022-12-17T00:08:07;97974.63;;;-2.81;83.22
59831;BME280;45711;50.108;13.712;2022-12-17T00:10:52;97978.19;;;-2.89;82.86
59831;BME280;45711;50.108;13.712;2022-12-17T00:13:35;97974.34;;;-2.93;83.13
59831;BME280;45711;50.108;13.712;2022-12-17T00:16:19;97985.03;;;-2.88;83.60
59831;BME280;45711;50.108;13.712;2022-12-17T00:19:03;97975.56;;;-2.89;83.88
59831;BME280;45711;50.108;13.712;2022-12-17T00:21:48;97985.25;;;-2.89;83.56
59831;BME280;45711;50.108;13.712;2022-12-17T00:24:32;97984.44;;;-2.90;83.42
59831;BME280;45711;50.108;13.712;2022-12-17T00:27:16;97988.44;;;-2.94;83.73
59831;BME280;45711;50.108;13.712;2022-12-17T00:30:00;97995.28;;;-2.93;83.77
59831;BME280;45711;50.108;13.712;2022-12-17T00:32:44;98000.59;;;-2.86;84.41
59831;BME280;45711;50.108;13.712;2022-12-17T00:35:28;97993.91;;;-2.89;83.99
59831;BME280;45711;50.108;13.712;2022-12-17T00:38:15;97997.09;;;-2.93;83.82
59831;BME280;45711;50.108;13.712;2022-12-17T00:40:59;98005.72;;;-2.99;84.48
59831;BME280;45711;50.108;13.712;2022-12-17T00:43:43;98007.19;;;-2.90;84.02
59831;BME280;45711;50.108;13.712;2022-12-17T00:46:27;98011.22;;;-2.88;84.09
59831;BME280;45711;50.108;13.712;2022-12-17T00:49:11;98014.84;;;-2.89;84.04
59831;BME280;45711;50.108;13.712;2022-12-17T00:51:55;98018.00;;;-3.00;83.83
59831;BME280;45711;50.108;13.712;2022-12-17T00:54:57;98021.88;;;-2.96;84.00
59831;BME280;45711;50.108;13.712;2022-12-17T00:57:41;98022.34;;;-2.86;84.18
59831;BME280;45711;50.108;13.712;2022-12-17T01:00:25;98031.78;;;-2.91;84.52
59831;BME280;45711;50.108;13.712;2022-12-17T01:03:11;98030.25;;;-3.00;83.91
59831;BME280;45711;50.108;13.712;2022-12-17T01:05:55;98026.66;;;-2.99;84.93
59831;BME280;45711;50.108;13.712;2022-12-17T01:08:39;98030.03;;;-3.06;84.18
59831;BME280;45711;50.108;13.712;2022-12-17T01:11:24;98039.09;;;-3.08;84.35
59831;BME280;45711;50.108;13.712;2022-12-17T01:14:08;98042.44;;;-3.14;84.62
59831;BME280;45711;50.108;13.712;2022-12-17T01:16:52;98049.91;;;-3.11;85.25
59831;BME280;45711;50.108;13.712;2022-12-17T01:19:36;98048.31;;;-3.12;85.17
59831;BME280;45711;50.108;13.712;2022-12-17T01:22:20;98054.47;;;-3.20;85.50
59831;BME280;45711;50.108;13.712;2022-12-17T01:25:05;98058.78;;;-3.12;85.66
59831;BME280;45711;50.108;13.712;2022-12-17T01:27:50;98065.38;;;-3.16;85.95
59831;BME280;45711;50.108;13.712;2022-12-17T01:30:45;98065.63;;;-3.11;84.92
59831;BME280;45711;50.108;13.712;2022-12-17T01:33:29;98064.06;;;-3.06;84.73
59831;BME280;45711;50.108;13.712;2022-12-17T01:36:14;98063.56;;;-3.16;84.83
59831;BME280;45711;50.108;13.712;2022-12-17T01:38:57;98061.00;;;-3.09;84.64
59831;BME280;45711;50.108;13.712;2022-12-17T01:41:41;98068.84;;;-3.09;84.75
59831;BME280;45711;50.108;13.712;2022-12-17T01:44:47;98068.81;;;-3.16;85.64
59831;BME280;45711;50.108;13.712;2022-12-17T01:47:39;98082.69;;;-3.15;85.57
59831;BME280;45711;50.108;13.712;2022-12-17T01:50:27;98075.41;;;-3.20;85.38
59831;BME280;45711;50.108;13.712;2022-12-17T01:53:18;98082.00;;;-3.24;85.74
59831;BME280;45711;50.108;13.712;2022-12-17T01:56:05;98082.09;;;-3.17;85.81
59831;BME280;45711;50.108;13.712;2022-12-17T01:58:51;98091.13;;;-3.20;85.42
59831;BME280;45711;50.108;13.712;2022-12-17T02:01:36;98085.06;;;-3.20;85.10
59831;BME280;45711;50.108;13.712;2022-12-17T02:04:20;98091.81;;;-3.11;85.04
59831;BME280;45711;50.108;13.712;2022-12-17T02:07:23;98093.63;;;-3.12;85.23
59831;BME280;45711;50.108;13.712;2022-12-17T02:10:23;98087.19;;;-3.09;84.31
59831;BME280;45711;50.108;13.712;2022-12-17T02:13:13;98093.25;;;-3.09;83.74
59831;BME280;45711;50.108;13.712;2022-12-17T02:16:04;98096.69;;;-3.08;84.18
59831;BME280;45711;50.108;13.712;2022-12-17T02:18:54;98103.31;;;-3.06;83.87
59831;BME280;45711;50.108;13.712;2022-12-17T02:21:41;98097.72;;;-3.03;83.88
59831;BME280;45711;50.108;13.712;2022-12-17T02:24:31;98095.91;;;-3.02;83.40
59831;BME280;45711;50.108;13.712;2022-12-17T02:27:21;98100.34;;;-3.03;83.26
59831;BME280;45711;50.108;13.712;2022-12-17T02:30:06;98103.31;;;-3.06;83.47
59831;BME280;45711;50.108;13.712;2022-12-17T02:32:51;98102.72;;;-3.08;83.21
59831;BME280;45711;50.108;13.712;2022-12-17T02:35:40;98105.59;;;-3.03;83.23
59831;BME280;45711;50.108;13.712;2022-12-17T02:38:26;98105.69;;;-3.11;83.63
59831;BME280;45711;50.108;13.712;2022-12-17T02:41:14;98116.38;;;-3.12;83.09
59831;BME280;45711;50.108;13.712;2022-12-17T02:43:59;98116.16;;;-3.11;83.32
59831;BME280;45711;50.108;13.712;2022-12-17T02:46:44;98120.97;;;-3.14;83.21
59831;BME280;45711;50.108;13.712;2022-12-17T02:49:29;98124.03;;;-3.11;82.94
59831;BME280;45711;50.108;13.712;2022-12-17T02:52:17;98128.38;;;-3.18;83.01
59831;BME280;45711;50.108;13.712;2022-12-17T02:55:02;98132.44;;;-3.15;83.58
59831;BME280;45711;50.108;13.712;2022-12-17T02:57:46;98136.91;;;-3.09;83.67
59831;BME280;45711;50.108;13.712;2022-12-17T03:00:31;98134.31;;;-3.09;83.70
59831;BME280;45711;50.108;13.712;2022-12-17T03:03:15;98139.38;;;-3.08;83.49
59831;BME280;45711;50.108;13.712;2022-12-17T03:05:59;98143.56;;;-3.13;83.26
59831;BME280;45711;50.108;13.712;2022-12-17T03:08:43;98143.91;;;-3.16;83.58
59831;BME280;45711;50.108;13.712;2022-12-17T03:11:28;98141.63;;;-3.05;84.43
59831;BME280;45711;50.108;13.712;2022-12-17T03:14:12;98150.28;;;-3.04;83.66
59831;BME280;45711;50.108;13.712;2022-12-17T03:16:57;98148.78;;;-3.13;83.74
59831;BME280;45711;50.108;13.712;2022-12-17T03:19:42;98154.72;;;-3.05;84.03
59831;BME280;45711;50.108;13.712;2022-12-17T03:22:26;98155.88;;;-3.07;84.06
59831;BME280;45711;50.108;13.712;2022-12-17T03:25:10;98158.25;;;-3.12;84.12
59831;BME280;45711;50.108;13.712;2022-12-17T03:27:54;98160.06;;;-3.13;84.28
59831;BME280;45711;50.108;13.712;2022-12-17T03:30:37;98163.63;;;-2.99;84.08
59831;BME280;45711;50.108;13.712;2022-12-17T03:33:23;98164.63;;;-3.00;84.40
59831;BME280;45711;50.108;13.712;2022-12-17T03:36:07;98165.25;;;-2.98;84.33
59831;BME280;45711;50.108;13.712;2022-12-17T03:38:51;98166.38;;;-3.07;83.97
59831;BME280;45711;50.108;13.712;2022-12-17T03:41:35;98161.88;;;-3.13;84.88
59831;BME280;45711;50.108;13.712;2022-12-17T03:44:19;98158.69;;;-3.09;85.24
59831;BME280;45711;50.108;13.712;2022-12-17T03:47:03;98166.91;;;-3.12;84.60
59831;BME280;45711;50.108;13.712;2022-12-17T03:49:48;98161.69;;;-3.12;84.80
59831;BME280;45711;50.108;13.712;2022-12-17T03:52:32;98175.56;;;-3.11;85.06
59831;BME280;45711;50.108;13.712;2022-12-17T03:55:16;98170.59;;;-3.06;85.37
59831;BME280;45711;50.108;13.712;2022-12-17T03:58:00;98174.56;;;-3.10;85.19
59831;BME280;45711;50.108;13.712;2022-12-17T04:00:44;98186.94;;;-3.04;85.31
59831;BME280;45711;50.108;13.712;2022-12-17T04:03:28;98181.88;;;-3.06;85.26
59831;BME280;45711;50.108;13.712;2022-12-17T04:06:14;98193.53;;;-3.08;85.26
59831;BME280;45711;50.108;13.712;2022-12-17T04:08:58;98196.88;;;-3.14;85.52
59831;BME280;45711;50.108;13.712;2022-12-17T04:11:42;98200.59;;;-3.09;86.04
59831;BME280;45711;50.108;13.712;2022-12-17T04:14:25;98205.75;;;-3.15;85.66
59831;BME280;45711;50.108;13.712;2022-12-17T04:17:10;98214.03;;;-3.12;85.94
59831;BME280;45711;50.108;13.712;2022-12-17T04:19:53;98218.63;;;-3.14;86.13
59831;BME280;45711;50.108;13.712;2022-12-17T04:22:39;98224.78;;;-3.07;86.25
59831;BME280;45711;50.108;13.712;2022-12-17T04:25:23;98228.41;;;-3.08;85.92
59831;BME280;45711;50.108;13.712;2022-12-17T04:28:20;98230.81;;;-3.06;86.29
59831;BME280;45711;50.108;13.712;2022-12-17T04:31:04;98233.78;;;-3.09;86.76
59831;BME280;45711;50.108;13.712;2022-12-17T04:33:50;98234.25;;;-3.06;86.51
59831;BME280;45711;50.108;13.712;2022-12-17T04:36:34;98239.41;;;-3.12;86.72
59831;BME280;45711;50.108;13.712;2022-12-17T04:39:19;98236.16;;;-3.14;86.87
59831;BME280;45711;50.108;13.712;2022-12-17T04:42:03;98242.59;;;-3.17;86.90
59831;BME280;45711;50.108;13.712;2022-12-17T04:44:47;98242.94;;;-3.20;86.87
59831;BME280;45711;50.108;13.712;2022-12-17T04:47:31;98250.88;;;-3.13;87.33
59831;BME280;45711;50.108;13.712;2022-12-17T04:50:15;98248.69;;;-3.10;86.97
59831;BME280;45711;50.108;13.712;2022-12-17T04:52:59;98254.72;;;-3.09;87.42
59831;BME280;45711;50.108;13.712;2022-12-17T04:55:44;98262.16;;;-3.13;87.59
59831;BME280;45711;50.108;13.712;2022-12-17T04:58:28;98263.78;;;-3.12;87.05
59831;BME280;45711;50.108;13.712;2022-12-17T05:01:12;98254.47;;;-3.14;87.76
59831;BME280;45711;50.108;13.712;2022-12-17T05:03:56;98263.78;;;-3.12;87.11
59831;BME280;45711;50.108;13.712;2022-12-17T05:06:40;98259.56;;;-3.13;87.35
59831;BME280;45711;50.108;13.712;2022-12-17T05:09:24;98275.25;;;-3.13;87.76
59831;BME280;45711;50.108;13.712;2022-12-17T05:12:10;98276.63;;;-3.17;87.49
59831;BME280;45711;50.108;13.712;2022-12-17T05:14:53;98283.91;;;-3.12;87.48
59831;BME280;45711;50.108;13.712;2022-12-17T05:17:37;98288.41;;;-3.06;88.08
59831;BME280;45711;50.108;13.712;2022-12-17T05:20:21;98287.16;;;-3.10;87.91
59831;BME280;45711;50.108;13.712;2022-12-17T05:23:05;98287.00;;;-3.09;87.99
59831;BME280;45711;50.108;13.712;2022-12-17T05:25:55;98304.47;;;-3.09;87.71
59831;BME280;45711;50.108;13.712;2022-12-17T05:28:45;98299.91;;;-3.07;87.45
59831;BME280;45711;50.108;13.712;2022-12-17T05:31:29;98304.88;;;-3.12;88.04
59831;BME280;45711;50.108;13.712;2022-12-17T05:34:13;98306.94;;;-3.22;88.17
59831;BME280;45711;50.108;13.712;2022-12-17T05:36:57;98308.28;;;-3.12;88.07
59831;BME280;45711;50.108;13.712;2022-12-17T05:39:40;98312.53;;;-3.11;88.12
59831;BME280;45711;50.108;13.712;2022-12-17T05:42:24;98313.06;;;-3.15;88.50
59831;BME280;45711;50.108;13.712;2022-12-17T05:45:10;98324.47;;;-3.08;87.98
59831;BME280;45711;50.108;13.712;2022-12-17T05:47:56;98323.66;;;-3.09;87.69
59831;BME280;45711;50.108;13.712;2022-12-17T05:50:40;98330.66;;;-3.09;87.88
59831;BME280;45711;50.108;13.712;2022-12-17T05:53:24;98332.78;;;-3.05;87.68
59831;BME280;45711;50.108;13.712;2022-12-17T05:56:08;98334.28;;;-3.10;88.22
59831;BME280;45711;50.108;13.712;2022-12-17T05:58:52;98339.16;;;-3.07;87.56
59831;BME280;45711;50.108;13.712;2022-12-17T06:01:37;98341.31;;;-3.11;87.81
59831;BME280;45711;50.108;13.712;2022-12-17T06:04:21;98349.44;;;-3.06;87.83
59831;BME280;45711;50.108;13.712;2022-12-17T06:07:05;98357.31;;;-3.06;88.04
59831;BME280;45711;50.108;13.712;2022-12-17T06:09:49;98358.31;;;-3.07;88.49
59831;BME280;45711;50.108;13.712;2022-12-17T06:12:32;98361.03;;;-3.00;87.98
59831;BME280;45711;50.108;13.712;2022-12-17T06:15:16;98371.41;;;-3.07;88.08
59831;BME280;45711;50.108;13.712;2022-12-17T06:18:02;98371.84;;;-3.03;88.48
59831;BME280;45711;50.108;13.712;2022-12-17T06:20:46;98372.31;;;-2.99;88.32
59831;BME280;45711;50.108;13.712;2022-12-17T06:23:30;98365.34;;;-3.07;88.22
59831;BME280;45711;50.108;13.712;2022-12-17T06:26:14;98375.47;;;-3.04;88.14
59831;BME280;45711;50.108;13.712;2022-12-17T06:28:58;98365.97;;;-3.05;88.67
59831;BME280;45711;50.108;13.712;2022-12-17T06:31:41;98378.44;;;-3.07;88.02
59831;BME280;45711;50.108;13.712;2022-12-17T06:34:27;98376.00;;;-3.09;88.26
59831;BME280;45711;50.108;13.712;2022-12-17T06:37:10;98382.88;;;-3.08;88.33
59831;BME280;45711;50.108;13.712;2022-12-17T06:39:54;98376.81;;;-3.08;88.21
59831;BME280;45711;50.108;13.712;2022-12-17T06:42:38;98384.50;;;-3.07;88.27
59831;BME280;45711;50.108;13.712;2022-12-17T06:45:22;98386.91;;;-3.05;88.74
59831;BME280;45711;50.108;13.712;2022-12-17T06:48:07;98394.97;;;-3.07;88.41
59831;BME280;45711;50.108;13.712;2022-12-17T06:50:53;98391.00;;;-3.03;88.74
59831;BME280;45711;50.108;13.712;2022-12-17T06:53:38;98396.84;;;-3.00;89.01
59831;BME280;45711;50.108;13.712;2022-12-17T06:56:21;98399.19;;;-3.06;88.65
59831;BME280;45711;50.108;13.712;2022-12-17T06:59:05;98404.16;;;-3.11;88.35
59831;BME280;45711;50.108;13.712;2022-12-17T07:01:50;98409.59;;;-3.12;88.71
59831;BME280;45711;50.108;13.712;2022-12-17T07:04:34;98413.28;;;-3.07;88.18
59831;BME280;45711;50.108;13.712;2022-12-17T07:07:19;98423.16;;;-3.09;88.25
59831;BME280;45711;50.108;13.712;2022-12-17T07:10:04;98428.81;;;-3.05;88.34
59831;BME280;45711;50.108;13.712;2022-12-17T07:12:48;98432.06;;;-3.03;88.04
59831;BME280;45711;50.108;13.712;2022-12-17T07:15:32;98434.03;;;-3.05;88.15
59831;BME280;45711;50.108;13.712;2022-12-17T07:18:16;98437.78;;;-2.99;88.06
59831;BME280;45711;50.108;13.712;2022-12-17T07:21:00;98450.50;;;-2.96;87.59
59831;BME280;45711;50.108;13.712;2022-12-17T07:23:45;98443.63;;;-2.97;88.10
59831;BME280;45711;50.108;13.712;2022-12-17T07:26:29;98446.16;;;-3.04;87.98
59831;BME280;45711;50.108;13.712;2022-12-17T07:29:13;98449.53;;;-2.95;88.15
59831;BME280;45711;50.108;13.712;2022-12-17T07:31:57;98453.56;;;-2.93;87.95
59831;BME280;45711;50.108;13.712;2022-12-17T07:34:41;98460.09;;;-2.89;87.67
59831;BME280;45711;50.108;13.712;2022-12-17T07:37:25;98459.72;;;-2.86;87.12
59831;BME280;45711;50.108;13.712;2022-12-17T07:40:11;98470.75;;;-2.75;86.92
59831;BME280;45711;50.108;13.712;2022-12-17T07:42:55;98468.50;;;-2.79;86.66
59831;BME280;45711;50.108;13.712;2022-12-17T07:45:39;98472.38;;;-2.74;86.50
59831;BME280;45711;50.108;13.712;2022-12-17T07:48:23;98481.25;;;-2.61;86.40
59831;BME280;45711;50.108;13.712;2022-12-17T07:51:07;98491.19;;;-2.56;86.08
59831;BME280;45711;50.108;13.712;2022-12-17T07:53:51;98492.63;;;-2.68;86.32
59831;BME280;45711;50.108;13.712;2022-12-17T07:56:37;98498.06;;;-2.70;86.16
59831;BME280;45711;50.108;13.712;2022-12-17T07:59:20;98499.59;;;-2.61;86.05
59831;BME280;45711;50.108;13.712;2022-12-17T08:02:04;98498.31;;;-2.50;86.34
59831;BME280;45711;50.108;13.712;2022-12-17T08:04:48;98513.72;;;-2.47;86.35
59831;BME280;45711;50.108;13.712;2022-12-17T08:07:32;98514.16;;;-2.43;85.56
59831;BME280;45711;50.108;13.712;2022-12-17T08:10:16;98517.22;;;-2.40;86.06
59831;BME280;45711;50.108;13.712;2022-12-17T08:13:02;98522.38;;;-2.32;85.97
59831;BME280;45711;50.108;13.712;2022-12-17T08:15:48;98523.28;;;-2.24;85.05
59831;BME280;45711;50.108;13.712;2022-12-17T08:18:32;98528.19;;;-2.21;85.03
59831;BME280;45711;50.108;13.712;2022-12-17T08:21:16;98543.97;;;-2.15;84.61
59831;BME280;45711;50.108;13.712;2022-12-17T08:24:00;98533.94;;;-2.11;84.96
59831;BME280;45711;50.108;13.712;2022-12-17T08:26:44;98541.47;;;-2.08;84.89
59831;BME280;45711;50.108;13.712;2022-12-17T08:29:30;98544.78;;;-2.14;84.20
59831;BME280;45711;50.108;13.712;2022-12-17T08:32:14;98542.88;;;-2.06;85.29
59831;BME280;45711;50.108;13.712;2022-12-17T08:34:58;98546.22;;;-1.97;84.53
59831;BME280;45711;50.108;13.712;2022-12-17T08:37:42;98558.19;;;-1.94;83.97
59831;BME280;45711;50.108;13.712;2022-12-17T08:40:26;98553.72;;;-1.79;83.33
59831;BME280;45711;50.108;13.712;2022-12-17T08:43:10;98552.19;;;-1.73;82.95
59831;BME280;45711;50.108;13.712;2022-12-17T08:45:58;98548.81;;;-1.67;83.24
59831;BME280;45711;50.108;13.712;2022-12-17T08:48:42;98562.63;;;-1.59;83.52
59831;BME280;45711;50.108;13.712;2022-12-17T08:51:26;98558.72;;;-1.48;82.63
59831;BME280;45711;50.108;13.712;2022-12-17T08:54:10;98560.91;;;-1.52;81.73
59831;BME280;45711;50.108;13.712;2022-12-17T08:56:54;98565.63;;;-1.62;83.12
59831;BME280;45711;50.108;13.712;2022-12-17T08:59:38;98569.94;;;-1.39;81.53
59831;BME280;45711;50.108;13.712;2022-12-17T09:02:24;98570.06;;;-1.26;81.04
59831;BME280;45711;50.108;13.712;2022-12-17T09:05:08;98576.88;;;-1.10;81.88
59831;BME280;45711;50.108;13.712;2022-12-17T09:07:57;98576.63;;;-1.15;80.07
59831;BME280;45711;50.108;13.712;2022-12-17T09:10:41;98575.75;;;-1.22;80.38
59831;BME280;45711;50.108;13.712;2022-12-17T09:13:25;98577.44;;;-1.15;80.34
59831;BME280;45711;50.108;13.712;2022-12-17T09:16:09;98577.66;;;-1.16;80.52
59831;BME280;45711;50.108;13.712;2022-12-17T09:18:57;98576.53;;;-1.07;80.26
59831;BME280;45711;50.108;13.712;2022-12-17T09:21:41;98585.66;;;-1.03;79.31
59831;BME280;45711;50.108;13.712;2022-12-17T09:24:25;98580.16;;;-1.08;78.94
59831;BME280;45711;50.108;13.712;2022-12-17T09:27:09;98585.66;;;-1.03;79.60
59831;BME280;45711;50.108;13.712;2022-12-17T09:29:56;98586.09;;;-0.99;79.51
59831;BME280;45711;50.108;13.712;2022-12-17T09:32:40;98592.59;;;-0.95;78.73
59831;BME280;45711;50.108;13.712;2022-12-17T09:35:25;98602.09;;;-0.73;77.92
59831;BME280;45711;50.108;13.712;2022-12-17T09:38:11;98602.03;;;-0.80;77.64
59831;BME280;45711;50.108;13.712;2022-12-17T09:41:01;98595.91;;;-0.87;77.33
59831;BME280;45711;50.108;13.712;2022-12-17T09:44:05;98595.16;;;-0.81;77.40
59831;BME280;45711;50.108;13.712;2022-12-17T09:46:55;98602.78;;;-0.64;78.07
59831;BME280;45711;50.108;13.712;2022-12-17T09:49:42;98599.03;;;-0.77;76.93
59831;BME280;45711;50.108;13.712;2022-12-17T09:52:28;98599.50;;;-0.66;77.02
59831;BME280;45711;50.108;13.712;2022-12-17T09:55:17;98604.28;;;-0.55;75.57
59831;BME280;45711;50.108;13.712;2022-12-17T09:58:03;98613.00;;;-0.48;76.75
59831;BME280;45711;50.108;13.712;2022-12-17T10:00:48;98616.16;;;-0.59;74.41
59831;BME280;45711;50.108;13.712;2022-12-17T10:03:34;98619.25;;;-0.56;75.17
59831;BME280;45711;50.108;13.712;2022-12-17T10:06:21;98618.25;;;-0.48;74.84
59831;BME280;45711;50.108;13.712;2022-12-17T10:09:13;98616.78;;;-0.57;74.82
59831;BME280;45711;50.108;13.712;2022-12-17T10:11:59;98622.47;;;-0.54;74.76
59831;BME280;45711;50.108;13.712;2022-12-17T10:14:52;98615.22;;;-0.52;74.35
59831;BME280;45711;50.108;13.712;2022-12-17T10:17:36;98622.81;;;-0.35;75.07
59831;BME280;45711;50.108;13.712;2022-12-17T10:20:23;98623.16;;;-0.45;74.81
59831;BME280;45711;50.108;13.712;2022-12-17T10:23:07;98616.66;;;-0.49;74.93
59831;BME280;45711;50.108;13.712;2022-12-17T10:25:54;98626.66;;;-0.38;75.25
59831;BME280;45711;50.108;13.712;2022-12-17T10:28:39;98630.09;;;-0.37;73.95
59831;BME280;45711;50.108;13.712;2022-12-17T10:31:27;98628.13;;;-0.29;73.32
59831;BME280;45711;50.108;13.712;2022-12-17T10:34:14;98626.41;;;-0.43;74.11
59831;BME280;45711;50.108;13.712;2022-12-17T10:37:00;98632.06;;;-0.46;73.94
59831;BME280;45711;50.108;13.712;2022-12-17T10:39:53;98629.09;;;-0.36;74.39
59831;BME280;45711;50.108;13.712;2022-12-17T10:42:39;98621.72;;;-0.47;73.18
59831;BME280;45711;50.108;13.712;2022-12-17T10:45:25;98630.59;;;-0.48;74.06
59831;BME280;45711;50.108;13.712;2022-12-17T10:48:20;98633.81;;;-0.53;73.80
59831;BME280;45711;50.108;13.712;2022-12-17T10:51:14;98633.75;;;-0.60;73.44
59831;BME280;45711;50.108;13.712;2022-12-17T10:54:05;98638.31;;;-0.47;72.24
59831;BME280;45711;50.108;13.712;2022-12-17T10:56:52;98634.88;;;-0.47;72.08
59831;BME280;45711;50.108;13.712;2022-12-17T10:59:40;98636.66;;;-0.48;72.70
59831;BME280;45711;50.108;13.712;2022-12-17T11:02:26;98642.75;;;-0.26;71.91
59831;BME280;45711;50.108;13.712;2022-12-17T11:05:13;98637.41;;;-0.33;70.79
59831;BME280;45711;50.108;13.712;2022-12-17T11:07:58;98645.63;;;-0.14;71.04
59831;BME280;45711;50.108;13.712;2022-12-17T11:10:43;98644.09;;;-0.02;69.83
59831;BME280;45711;50.108;13.712;2022-12-17T11:13:31;98657.69;;;0.02;71.98
59831;BME280;45711;50.108;13.712;2022-12-17T11:16:21;98658.22;;;-0.10;71.46
59831;BME280;45711;50.108;13.712;2022-12-17T11:19:21;98665.16;;;-0.02;70.88
59831;BME280;45711;50.108;13.712;2022-12-17T11:22:19;98660.09;;;-0.04;71.21
59831;BME280;45711;50.108;13.712;2022-12-17T11:25:20;98666.44;;;-0.19;71.58
59831;BME280;45711;50.108;13.712;2022-12-17T11:28:13;98669.31;;;-0.14;72.29
59831;BME280;45711;50.108;13.712;2022-12-17T11:31:01;98659.50;;;-0.27;72.46
59831;BME280;45711;50.108;13.712;2022-12-17T11:33:56;98665.88;;;-0.43;72.51
59831;BME280;45711;50.108;13.712;2022-12-17T11:36:48;98665.78;;;-0.49;71.58
59831;BME280;45711;50.108;13.712;2022-12-17T11:39:42;98657.09;;;-0.50;72.09
59831;BME280;45711;50.108;13.712;2022-12-17T11:42:33;98665.88;;;-0.43;72.45
59831;BME280;45711;50.108;13.712;2022-12-17T11:45:27;98667.69;;;-0.65;72.38
59831;BME280;45711;50.108;13.712;2022-12-17T11:48:18;98672.25;;;-0.52;71.64
59831;BME280;45711;50.108;13.712;2022-12-17T11:51:12;98660.97;;;-0.46;71.34
59831;BME280;45711;50.108;13.712;2022-12-17T11:54:05;98664.09;;;-0.36;71.78
59831;BME280;45711;50.108;13.712;2022-12-17T11:57:02;98666.44;;;-0.19;71.28
59831;BME280;45711;50.108;13.712;2022-12-17T11:59:57;98672.97;;;-0.15;72.40
59831;BME280;45711;50.108;13.712;2022-12-17T12:02:51;98674.06;;;-0.03;70.84
59831;BME280;45711;50.108;13.712;2022-12-17T12:05:44;98673.72;;;-0.21;70.00
59831;BME280;45711;50.108;13.712;2022-12-17T12:08:34;98668.13;;;-0.12;70.99
59831;BME280;45711;50.108;13.712;2022-12-17T12:11:26;98677.50;;;-0.03;71.21
59831;BME280;45711;50.108;13.712;2022-12-17T12:14:22;98680.94;;;-0.02;71.83
59831;BME280;45711;50.108;13.712;2022-12-17T12:17:23;98685.75;;;-0.12;70.60
59831;BME280;45711;50.108;13.712;2022-12-17T12:20:23;98684.06;;;-0.20;70.80
59831;BME280;45711;50.108;13.712;2022-12-17T12:23:17;98690.91;;;-0.26;72.15
59831;BME280;45711;50.108;13.712;2022-12-17T12:26:13;98696.66;;;-0.37;71.87
59831;BME280;45711;50.108;13.712;2022-12-17T12:29:04;98697.47;;;-0.36;71.89
59831;BME280;45711;50.108;13.712;2022-12-17T12:31:57;98694.53;;;-0.48;71.14
59831;BME280;45711;50.108;13.712;2022-12-17T12:34:44;98696.78;;;-0.66;71.33
59831;BME280;45711;50.108;13.712;2022-12-17T12:37:29;98695.28;;;-0.76;71.79
59831;BME280;45711;50.108;13.712;2022-12-17T12:40:19;98688.59;;;-0.78;71.76
59831;BME280;45711;50.108;13.712;2022-12-17T12:43:15;98691.34;;;-0.86;72.93
59831;BME280;45711;50.108;13.712;2022-12-17T12:46:03;98698.75;;;-0.90;72.99
59831;BME280;45711;50.108;13.712;2022-12-17T12:48:53;98703.00;;;-0.89;73.48
59831;BME280;45711;50.108;13.712;2022-12-17T12:51:40;98702.47;;;-0.84;73.22
59831;BME280;45711;50.108;13.712;2022-12-17T12:54:29;98703.56;;;-0.93;71.95
59831;BME280;45711;50.108;13.712;2022-12-17T12:57:28;98699.78;;;-0.91;72.76
59831;BME280;45711;50.108;13.712;2022-12-17T13:00:24;98696.13;;;-0.90;72.51
59831;BME280;45711;50.108;13.712;2022-12-17T13:03:17;98694.13;;;-0.88;71.83
59831;BME280;45711;50.108;13.712;2022-12-17T13:06:02;98697.41;;;-0.86;71.94
59831;BME280;45711;50.108;13.712;2022-12-17T13:08:28;98698.97;;;-0.91;71.83
59831;BME280;45711;50.108;13.712;2022-12-17T13:10:53;98696.34;;;-0.91;72.52
59831;BME280;45711;50.108;13.712;2022-12-17T13:13:31;98701.69;;;-0.99;73.21
59831;BME280;45711;50.108;13.712;2022-12-17T13:16:03;98708.22;;;-1.10;73.88
59831;BME280;45711;50.108;13.712;2022-12-17T13:18:32;98713.72;;;-1.05;73.07
59831;BME280;45711;50.108;13.712;2022-12-17T13:21:01;98708.97;;;-1.16;73.26
59831;BME280;45711;50.108;13.712;2022-12-17T13:23:33;98704.44;;;-1.22;72.57
59831;BME280;45711;50.108;13.712;2022-12-17T13:26:17;98710.50;;;-1.22;72.79
59831;BME280;45711;50.108;13.712;2022-12-17T13:28:57;98715.94;;;-1.23;72.43
59831;BME280;45711;50.108;13.712;2022-12-17T13:31:26;98715.59;;;-1.20;72.50
59831;BME280;45711;50.108;13.712;2022-12-17T13:33:58;98711.59;;;-1.31;71.85
59831;BME280;45711;50.108;13.712;2022-12-17T13:36:32;98717.41;;;-1.36;72.47
59831;BME280;45711;50.108;13.712;2022-12-17T13:39:02;98721.69;;;-1.35;72.44
59831;BME280;45711;50.108;13.712;2022-12-17T13:41:31;98721.84;;;-1.36;73.04
59831;BME280;45711;50.108;13.712;2022-12-17T13:43:59;98729.16;;;-1.32;72.47
59831;BME280;45711;50.108;13.712;2022-12-17T13:46:29;98724.09;;;-1.33;72.37
59831;BME280;45711;50.108;13.712;2022-12-17T13:48:56;98740.88;;;-1.34;72.68
59831;BME280;45711;50.108;13.712;2022-12-17T13:51:23;98741.41;;;-1.39;73.48
59831;BME280;45711;50.108;13.712;2022-12-17T13:53:54;98750.38;;;-1.33;73.26
59831;BME280;45711;50.108;13.712;2022-12-17T13:56:25;98751.63;;;-1.44;73.04
59831;BME280;45711;50.108;13.712;2022-12-17T13:58:55;98759.59;;;-1.52;74.40
59831;BME280;45711;50.108;13.712;2022-12-17T14:01:24;98757.59;;;-1.65;74.12
59831;BME280;45711;50.108;13.712;2022-12-17T14:03:55;98758.56;;;-1.66;74.28
59831;BME280;45711;50.108;13.712;2022-12-17T14:06:23;98764.28;;;-1.62;73.81
59831;BME280;45711;50.108;13.712;2022-12-17T14:08:51;98768.66;;;-1.55;73.84
59831;BME280;45711;50.108;13.712;2022-12-17T14:11:18;98766.00;;;-1.40;73.57
59831;BME280;45711;50.108;13.712;2022-12-17T14:14:06;98764.31;;;-1.33;73.14
59831;BME280;45711;50.108;13.712;2022-12-17T14:16:32;98772.19;;;-1.33;72.49
59831;BME280;45711;50.108;13.712;2022-12-17T14:19:00;98776.28;;;-1.30;72.78
59831;BME280;45711;50.108;13.712;2022-12-17T14:21:28;98775.72;;;-1.40;72.16
59831;BME280;45711;50.108;13.712;2022-12-17T14:23:55;98777.78;;;-1.50;71.80